createdAt,value
2023-04-24T00:02:21.010Z,36.70
2023-04-24T00:04:48.313Z,38.66
2023-04-24T00:07:18.027Z,39.70
2023-04-24T00:09:45.325Z,39.41
2023-04-24T00:12:12.549Z,39.90
2023-04-24T00:14:39.904Z,40.61
2023-04-24T00:17:07.276Z,40.45
2023-04-24T00:19:36.382Z,40.58
2023-04-24T00:22:03.916Z,40.68
2023-04-24T00:24:31.088Z,40.92
2023-04-24T00:26:58.433Z,41.23
2023-04-24T00:29:25.642Z,41.44
2023-04-24T00:31:52.950Z,41.62
2023-04-24T00:34:20.064Z,41.70
2023-04-24T00:36:47.428Z,41.84
2023-04-24T00:39:14.648Z,41.94
2023-04-24T00:41:42.480Z,42.15
2023-04-24T00:44:09.634Z,42.40
2023-04-24T00:46:37.232Z,42.43
2023-04-24T00:49:04.587Z,42.42
2023-04-24T00:51:33.911Z,42.58
2023-04-24T00:54:02.406Z,42.73
2023-04-24T00:56:29.611Z,43.20
2023-04-24T00:58:56.937Z,43.10
2023-04-24T01:01:26.932Z,43.14
2023-04-24T01:03:54.372Z,43.01
2023-04-24T01:06:21.735Z,43.05
2023-04-24T01:08:49.272Z,43.15
2023-04-24T01:11:16.363Z,42.42
2023-04-24T01:13:43.525Z,41.92
2023-04-24T01:16:12.308Z,41.50
2023-04-24T01:18:39.467Z,41.66
2023-04-24T01:21:07.172Z,42.28
2023-04-24T01:23:34.269Z,42.56
2023-04-24T01:26:02.131Z,42.86
2023-04-24T01:28:29.266Z,43.49
2023-04-24T01:30:57.625Z,43.54
2023-04-24T01:33:24.717Z,43.41
2023-04-24T01:35:51.912Z,43.33
2023-04-24T01:38:19.139Z,43.16
2023-04-24T01:40:46.400Z,42.81
2023-04-24T01:43:14.082Z,42.81
2023-04-24T01:45:41.277Z,42.63
2023-04-24T01:48:08.349Z,42.28
2023-04-24T01:50:38.960Z,42.19
2023-04-24T01:53:06.180Z,42.15
2023-04-24T01:55:33.650Z,42.16
2023-04-24T01:58:00.813Z,41.81
2023-04-24T02:00:27.980Z,41.49
2023-04-24T02:02:55.315Z,41.14
2023-04-24T02:05:22.610Z,40.92
2023-04-24T02:07:49.875Z,40.53
2023-04-24T02:10:17.043Z,40.36
2023-04-24T02:12:44.873Z,40.76
2023-04-24T02:15:12.295Z,40.51
2023-04-24T02:17:39.774Z,40.52
2023-04-24T02:20:10.158Z,40.40
2023-04-24T02:22:39.281Z,40.14
2023-04-24T02:25:08.434Z,39.85
2023-04-24T02:27:35.654Z,39.72
2023-04-24T02:30:06.616Z,39.61
2023-04-24T02:32:33.907Z,39.48
2023-04-24T02:35:01.087Z,39.67
2023-04-24T02:37:28.241Z,39.58
2023-04-24T02:39:55.425Z,39.53
2023-04-24T02:42:23.957Z,39.51
2023-04-24T02:44:52.685Z,39.48
2023-04-24T02:47:19.899Z,39.50
2023-04-24T02:49:47.108Z,39.39
2023-04-24T02:52:15.978Z,38.99
2023-04-24T02:54:43.173Z,38.85
2023-04-24T02:57:10.246Z,38.49
2023-04-24T02:59:38.354Z,38.19
2023-04-24T03:14:07.583Z,37.49
2023-04-24T03:16:34.834Z,37.18
2023-04-24T03:19:02.346Z,37.00
2023-04-24T03:21:30.638Z,37.08
2023-04-24T03:24:00.074Z,37.51
2023-04-24T03:26:27.502Z,38.49
2023-04-24T03:29:07.171Z,39.29
2023-04-24T03:31:34.675Z,40.08
2023-04-24T03:34:01.928Z,40.39
2023-04-24T03:36:29.589Z,40.99
2023-04-24T03:38:56.845Z,41.87
2023-04-24T03:41:33.959Z,42.48
2023-04-24T03:44:23.705Z,42.88
2023-04-24T03:46:51.288Z,43.44
2023-04-24T03:49:19.755Z,43.79
2023-04-24T03:51:47.341Z,43.87
2023-04-24T03:54:26.882Z,44.07
2023-04-24T03:56:55.180Z,44.32
2023-04-24T03:59:23.429Z,44.62
2023-04-24T04:02:01.019Z,44.52
2023-04-24T04:04:29.198Z,44.89
2023-04-24T04:07:02.503Z,45.04
2023-04-24T04:09:30.713Z,44.98
2023-04-24T04:11:57.867Z,44.95
2023-04-24T04:14:25.481Z,44.60
2023-04-24T04:16:54.679Z,44.37
2023-04-24T04:19:22.835Z,44.51
2023-04-24T04:21:54.635Z,44.15
2023-04-24T04:24:45.711Z,43.94
2023-04-24T04:27:15.177Z,43.74
2023-04-24T04:29:51.244Z,43.74
2023-04-24T04:32:19.167Z,43.71
2023-04-24T04:34:50.818Z,43.64
2023-04-24T04:37:18.526Z,43.39
2023-04-24T04:39:51.731Z,42.77
2023-04-24T04:42:22.400Z,42.50
2023-04-24T04:44:52.087Z,42.23
2023-04-24T04:47:24.587Z,42.43
2023-04-24T04:49:55.152Z,42.47
2023-04-24T04:52:26.525Z,42.36
2023-04-24T04:54:59.959Z,42.35
2023-04-24T04:57:34.219Z,42.39
2023-04-24T05:05:57.404Z,41.55
2023-04-24T05:08:43.812Z,40.94
2023-04-24T05:11:16.360Z,39.92
2023-04-24T05:13:43.626Z,39.04
2023-04-24T05:16:16.973Z,38.30
2023-04-24T05:18:47.631Z,38.00
2023-04-24T05:21:17.120Z,37.76
2023-04-24T05:23:47.075Z,37.46
2023-04-24T05:26:16.831Z,37.19
2023-04-24T05:28:45.293Z,36.93
2023-04-24T05:31:13.759Z,36.47
2023-04-24T05:33:41.116Z,36.19
2023-04-24T05:36:08.709Z,35.87
2023-04-24T05:38:37.147Z,35.25
2023-04-24T05:41:04.342Z,34.46
2023-04-24T05:43:32.904Z,34.07
2023-04-24T05:46:04.633Z,33.88
2023-04-24T05:48:32.852Z,33.50
2023-04-24T05:51:02.341Z,33.13
2023-04-24T05:53:30.916Z,32.75
2023-04-24T05:55:59.178Z,32.15
2023-04-24T05:58:27.176Z,31.81
2023-04-24T06:00:54.944Z,31.49
2023-04-24T06:03:23.132Z,31.04
2023-04-24T06:05:52.377Z,30.58
2023-04-24T06:08:20.112Z,29.81
2023-04-24T06:10:47.881Z,29.30
2023-04-24T06:13:17.297Z,28.84
2023-04-24T06:15:54.433Z,28.84
2023-04-24T06:18:30.368Z,28.76
2023-04-24T06:20:57.680Z,28.54
2023-04-24T06:23:24.918Z,28.49
2023-04-24T06:25:52.436Z,28.54
2023-04-24T06:28:19.790Z,28.14
2023-04-24T06:30:46.897Z,27.55
2023-04-24T06:35:49.373Z,25.91
2023-04-24T06:38:17.965Z,25.52
2023-04-24T06:40:46.140Z,25.28
2023-04-24T06:43:13.877Z,25.07
2023-04-24T06:45:41.271Z,25.15
2023-04-24T06:48:08.609Z,25.11
2023-04-24T06:50:36.527Z,25.28
2023-04-24T06:53:03.658Z,25.30
2023-04-24T06:55:32.366Z,24.76
2023-04-24T06:57:59.919Z,24.49
2023-04-24T07:00:27.073Z,23.79
2023-04-24T07:02:54.553Z,23.34
2023-04-24T07:05:21.792Z,23.17
2023-04-24T07:07:50.233Z,22.89
2023-04-24T07:10:17.431Z,22.46
2023-04-24T07:12:44.909Z,21.95
2023-04-24T07:15:12.066Z,22.48
2023-04-24T07:17:39.837Z,23.01
2023-04-24T07:20:10.591Z,22.73
2023-04-24T07:22:39.304Z,22.89
2023-04-24T07:25:06.731Z,22.85
2023-04-24T07:27:34.315Z,22.74
2023-04-24T07:30:05.720Z,22.77
2023-04-24T07:32:33.128Z,23.14
2023-04-24T07:35:00.260Z,22.46
2023-04-24T07:37:28.967Z,22.09
2023-04-24T07:39:56.528Z,22.17
2023-04-24T07:42:25.355Z,22.25
2023-04-24T07:44:52.597Z,22.40
2023-04-24T07:47:19.722Z,22.50
2023-04-24T07:49:46.868Z,22.37
2023-04-24T07:52:14.121Z,21.84
2023-04-24T07:54:42.066Z,21.46
2023-04-24T07:57:09.471Z,21.30
2023-04-24T07:59:36.675Z,21.37
2023-04-24T08:02:03.845Z,21.16
2023-04-24T08:04:31.219Z,21.16
2023-04-24T08:06:59.014Z,21.45
2023-04-24T08:09:27.647Z,21.71
2023-04-24T08:11:55.081Z,21.80
2023-04-24T08:14:22.342Z,21.72
2023-04-24T08:16:49.410Z,21.78
2023-04-24T08:19:16.563Z,21.81
2023-04-24T08:21:43.704Z,21.80
2023-04-24T08:24:10.833Z,21.93
2023-04-24T08:26:38.015Z,21.80
2023-04-24T08:29:08.020Z,21.82
2023-04-24T08:31:35.311Z,21.92
2023-04-24T08:34:02.666Z,22.13
2023-04-24T08:36:43.551Z,22.15
2023-04-24T08:39:14.024Z,22.20
2023-04-24T08:41:46.640Z,22.19
2023-04-24T08:44:16.884Z,22.29
2023-04-24T08:46:46.762Z,22.26
2023-04-24T08:49:17.424Z,22.29
2023-04-24T08:51:48.884Z,21.78
2023-04-24T08:54:16.499Z,21.59
2023-04-24T08:56:45.126Z,21.32
2023-04-24T08:59:15.761Z,21.50
2023-04-24T09:01:44.935Z,21.73
2023-04-24T09:04:16.317Z,22.00
2023-04-24T09:06:43.864Z,21.97
2023-04-24T09:09:11.162Z,21.95
2023-04-24T09:11:38.382Z,21.80
2023-04-24T09:14:08.726Z,21.63
2023-04-24T09:16:37.257Z,21.43
2023-04-24T09:19:06.850Z,21.35
2023-04-24T09:21:34.987Z,21.18
2023-04-24T09:24:04.611Z,20.95
2023-04-24T09:26:35.070Z,20.78
2023-04-24T09:29:02.354Z,20.62
2023-04-24T09:31:30.826Z,20.29
2023-04-24T09:34:02.900Z,19.79
2023-04-24T09:36:35.117Z,19.68
2023-04-24T09:39:03.143Z,19.53
2023-04-24T09:41:33.890Z,19.48
2023-04-24T09:44:17.576Z,19.07
2023-04-24T09:46:50.079Z,19.01
2023-04-24T09:49:17.917Z,18.89
2023-04-24T09:51:47.315Z,19.03
2023-04-24T09:54:23.772Z,18.94
2023-04-24T09:56:52.185Z,19.08
2023-04-24T09:59:20.841Z,19.49
2023-04-24T10:01:49.865Z,20.04
2023-04-24T10:04:22.069Z,20.74
2023-04-24T10:06:52.844Z,21.14
2023-04-24T10:09:22.259Z,21.44
2023-04-24T10:11:55.236Z,21.80
2023-04-24T10:14:23.676Z,22.15
2023-04-24T10:16:51.384Z,21.98
2023-04-24T10:19:21.527Z,22.18
2023-04-24T10:21:48.836Z,22.40
2023-04-24T10:24:19.593Z,22.48
2023-04-24T10:26:47.000Z,22.21
2023-04-24T10:29:14.810Z,21.91
2023-04-24T10:31:42.818Z,21.64
2023-04-24T10:34:11.770Z,21.71
2023-04-24T10:36:43.907Z,21.91
2023-04-24T10:39:13.818Z,21.95
2023-04-24T10:41:42.245Z,21.83
2023-04-24T10:44:10.999Z,22.15
2023-04-24T10:46:42.418Z,22.25
2023-04-24T10:49:12.574Z,21.83
2023-04-24T10:51:48.437Z,21.90
2023-04-24T10:54:35.133Z,21.63
2023-04-24T10:57:23.786Z,22.38
2023-04-24T11:00:19.887Z,23.22
2023-04-24T11:02:50.617Z,23.62
2023-04-24T11:05:18.902Z,23.79
2023-04-24T11:08:14.482Z,23.55
2023-04-24T11:10:48.842Z,23.64
2023-04-24T11:13:22.890Z,23.43
2023-04-24T11:16:30.254Z,23.70
2023-04-24T11:19:09.010Z,24.04
2023-04-24T11:21:49.750Z,23.57
2023-04-24T11:24:27.641Z,23.50
2023-04-24T11:26:58.718Z,23.24
2023-04-24T11:29:45.724Z,23.17
2023-04-24T11:32:20.732Z,23.22
2023-04-24T11:34:53.038Z,23.34
2023-04-24T11:37:44.013Z,23.53
2023-04-24T11:40:17.688Z,23.85
2023-04-24T11:42:45.548Z,24.06
2023-04-24T11:45:21.029Z,23.88
2023-04-24T11:47:48.819Z,23.79
2023-04-24T11:50:17.073Z,23.99
2023-04-24T11:52:47.656Z,23.86
2023-04-24T11:55:20.916Z,23.92
2023-04-24T11:57:52.296Z,24.29
2023-04-24T12:00:23.846Z,24.42
2023-04-24T12:02:51.682Z,24.50
2023-04-24T12:05:35.857Z,24.59
2023-04-24T12:08:03.239Z,24.73
2023-04-24T12:10:31.410Z,24.70
2023-04-24T12:13:03.957Z,24.70
2023-04-24T12:15:32.313Z,24.74
2023-04-24T12:18:00.152Z,24.70
2023-04-24T12:20:32.349Z,24.85
2023-04-24T12:23:05.071Z,24.97
2023-04-24T12:25:33.178Z,24.90
2023-04-24T12:28:27.024Z,25.01
2023-04-24T12:30:54.795Z,25.29
2023-04-24T12:33:22.354Z,25.34
2023-04-24T12:35:52.631Z,25.47
2023-04-24T12:38:26.956Z,25.04
2023-04-24T12:41:07.693Z,25.10
2023-04-24T12:43:35.212Z,24.98
2023-04-24T12:46:02.424Z,25.11
2023-04-24T12:48:30.411Z,25.15
2023-04-24T12:51:04.154Z,25.08
2023-04-24T12:53:32.457Z,25.05
2023-04-24T12:55:59.831Z,25.11
2023-04-24T12:58:27.097Z,25.14
2023-04-24T13:00:54.407Z,25.35
2023-04-24T13:03:23.758Z,26.46
2023-04-24T13:05:51.546Z,28.98
2023-04-24T13:08:19.508Z,30.42
2023-04-24T13:10:46.722Z,31.01
2023-04-24T13:13:13.776Z,31.47
2023-04-24T13:15:41.401Z,31.30
2023-04-24T13:18:08.567Z,29.87
2023-04-24T13:20:37.449Z,28.73
2023-04-24T13:23:04.700Z,28.49
2023-04-24T13:25:36.434Z,28.05
2023-04-24T13:28:03.562Z,27.90
2023-04-24T13:30:30.632Z,27.91
2023-04-24T13:32:57.759Z,27.96
2023-04-24T13:35:24.888Z,27.57
2023-04-24T13:37:53.180Z,27.24
2023-04-24T13:40:20.356Z,27.12
2023-04-24T13:42:47.472Z,27.02
2023-04-24T13:45:24.870Z,26.96
2023-04-24T13:47:52.857Z,26.82
2023-04-24T13:50:20.501Z,26.78
2023-04-24T13:52:47.645Z,26.72
2023-04-24T13:55:15.044Z,26.67
2023-04-24T13:57:42.149Z,26.79
2023-04-24T14:00:15.558Z,26.90
2023-04-24T14:02:43.648Z,26.97
2023-04-24T14:05:12.308Z,26.99
2023-04-24T14:07:39.626Z,26.98
2023-04-24T14:10:08.660Z,27.02
2023-04-24T14:12:36.278Z,27.35
2023-04-24T14:15:03.847Z,27.77
2023-04-24T14:17:31.960Z,28.09
2023-04-24T14:20:01.661Z,28.17
2023-04-24T14:22:29.264Z,28.21
2023-04-24T14:24:56.356Z,28.28
2023-04-24T14:27:23.700Z,28.18
2023-04-24T14:29:51.008Z,28.20
2023-04-24T14:32:19.574Z,28.18
2023-04-24T14:34:46.725Z,28.30
2023-04-24T14:37:13.884Z,28.38
2023-04-24T14:39:42.364Z,28.37
2023-04-24T14:42:10.822Z,28.31
2023-04-24T14:44:38.290Z,28.40
2023-04-24T14:47:05.482Z,28.40
2023-04-24T14:49:34.143Z,28.45
2023-04-24T14:52:01.469Z,28.50
2023-04-24T14:54:29.614Z,28.46
2023-04-24T14:56:58.379Z,28.27
2023-04-24T14:59:25.599Z,28.33
2023-04-24T15:02:04.976Z,28.40
2023-04-24T15:04:43.202Z,28.39
2023-04-24T15:07:10.552Z,28.44
2023-04-24T15:09:37.657Z,28.52
2023-04-24T15:12:05.233Z,28.59
2023-04-24T15:14:32.462Z,28.60
2023-04-24T15:16:59.741Z,28.71
2023-04-24T15:19:26.998Z,28.80
2023-04-24T15:21:54.820Z,28.68
2023-04-24T15:24:21.901Z,28.62
2023-04-24T15:26:51.497Z,28.57
2023-04-24T15:29:19.044Z,28.61
2023-04-24T15:31:51.361Z,28.62
2023-04-24T15:34:18.491Z,28.59
2023-04-24T15:36:45.804Z,28.61
2023-04-24T15:39:15.833Z,28.37
2023-04-24T15:41:43.095Z,28.42
2023-04-24T15:44:10.575Z,28.16
2023-04-24T15:46:40.809Z,28.01
2023-04-24T15:49:08.009Z,27.96
2023-04-24T15:51:36.351Z,27.97
2023-04-24T15:54:03.963Z,27.94
2023-04-24T15:56:31.645Z,27.91
2023-04-24T15:58:59.237Z,27.91
2023-04-24T16:01:27.810Z,28.01
2023-04-24T16:03:57.252Z,27.90
2023-04-24T16:06:25.960Z,27.84
2023-04-24T16:08:53.025Z,27.91
2023-04-24T16:11:20.167Z,27.82
2023-04-24T16:13:47.332Z,27.91
2023-04-24T16:16:14.490Z,27.83
2023-04-24T16:18:41.933Z,27.95
2023-04-24T16:21:10.893Z,28.15
2023-04-24T16:23:38.332Z,28.25
2023-04-24T16:26:06.862Z,28.37
2023-04-24T16:28:33.929Z,28.40
2023-04-24T16:31:01.427Z,28.54
2023-04-24T16:33:29.518Z,28.56
2023-04-24T16:35:58.215Z,28.78
2023-04-24T16:38:27.522Z,28.85
2023-04-24T16:40:54.961Z,29.02
2023-04-24T16:43:22.107Z,29.08
2023-04-24T16:45:49.210Z,29.24
2023-04-24T16:48:17.929Z,29.38
2023-04-24T16:50:46.370Z,29.53
2023-04-24T16:53:13.984Z,29.69
2023-04-24T16:55:41.195Z,29.83
2023-04-24T16:58:08.586Z,29.97
2023-04-24T17:00:37.093Z,30.09
2023-04-24T17:03:04.553Z,30.17
2023-04-24T17:05:33.668Z,30.32
2023-04-24T17:08:01.092Z,30.49
2023-04-24T17:10:29.202Z,30.62
2023-04-24T17:12:57.644Z,30.72
2023-04-24T17:15:24.780Z,30.89
2023-04-24T17:17:51.992Z,31.09
2023-04-24T17:20:22.761Z,31.29
2023-04-24T17:22:50.382Z,31.45
2023-04-24T17:25:17.838Z,31.59
2023-04-24T17:27:45.390Z,31.75
2023-04-24T17:30:14.802Z,31.89
2023-04-24T17:32:41.901Z,32.04
2023-04-24T17:35:09.374Z,32.08
2023-04-24T17:37:37.933Z,32.32
2023-04-24T17:40:08.401Z,32.32
2023-04-24T17:42:41.573Z,32.43
2023-04-24T17:45:10.183Z,32.57
2023-04-24T17:47:37.328Z,32.69
2023-04-24T17:50:04.736Z,32.77
2023-04-24T17:52:33.630Z,32.97
2023-04-24T17:55:02.375Z,33.06
2023-04-24T17:57:29.651Z,33.02
2023-04-24T17:59:57.561Z,33.16
2023-04-24T18:02:27.965Z,33.16
2023-04-24T18:04:55.656Z,33.35
2023-04-24T18:07:23.028Z,33.45
2023-04-24T18:09:50.128Z,33.42
2023-04-24T18:12:17.311Z,33.42
2023-04-24T18:14:44.456Z,33.41
2023-04-24T18:17:11.828Z,33.56
2023-04-24T18:19:39.158Z,33.59
2023-04-24T18:22:06.376Z,33.59
2023-04-24T18:24:33.763Z,33.52
2023-04-24T18:27:01.854Z,33.44
2023-04-24T18:29:29.374Z,33.41
2023-04-24T18:31:56.806Z,33.42
2023-04-24T18:34:24.030Z,33.58
2023-04-24T18:36:51.345Z,33.59
2023-04-24T18:39:18.499Z,33.65
2023-04-24T18:41:45.906Z,33.72
2023-04-24T18:44:15.474Z,33.85
2023-04-24T18:46:42.758Z,33.92
2023-04-24T18:49:10.425Z,34.02
2023-04-24T18:51:50.195Z,34.05
2023-04-24T18:54:20.075Z,34.14
2023-04-24T18:56:47.200Z,34.28
2023-04-24T18:59:14.396Z,34.60
2023-04-24T19:01:41.841Z,34.69
2023-04-24T19:04:10.161Z,34.85
2023-04-24T19:06:38.290Z,34.98
2023-04-24T19:09:05.940Z,35.16
2023-04-24T19:11:33.645Z,35.57
2023-04-24T19:14:05.824Z,36.00
2023-04-24T19:16:32.995Z,36.25
2023-04-24T19:19:00.241Z,36.53
2023-04-24T19:21:28.606Z,36.86
2023-04-24T19:23:57.214Z,36.90
2023-04-24T19:26:25.998Z,36.97
2023-04-24T19:28:53.841Z,37.02
2023-04-24T19:31:22.308Z,37.29
2023-04-24T19:33:49.800Z,37.45
2023-04-24T19:36:20.872Z,37.89
2023-04-24T19:38:48.278Z,38.17
2023-04-24T19:41:16.252Z,38.72
2023-04-24T19:43:43.512Z,39.09
2023-04-24T19:46:13.396Z,39.53
2023-04-24T19:48:40.885Z,39.66
2023-04-24T19:51:08.087Z,39.73
2023-04-24T19:53:37.343Z,39.70
2023-04-24T19:56:04.591Z,40.32
2023-04-24T19:58:32.751Z,41.00
2023-04-24T20:01:01.659Z,41.23
2023-04-24T20:03:33.486Z,41.59
2023-04-24T20:06:01.361Z,42.07
2023-04-24T20:08:28.573Z,42.44
2023-04-24T20:10:58.212Z,42.73
2023-04-24T20:13:27.768Z,43.15
2023-04-24T20:15:55.735Z,43.41
2023-04-24T20:18:23.383Z,43.42
2023-04-24T20:20:54.286Z,43.90
2023-04-24T20:23:21.552Z,44.15
2023-04-24T20:25:50.249Z,44.31
2023-04-24T20:28:19.340Z,44.45
2023-04-24T20:30:46.612Z,44.56
2023-04-24T20:33:13.746Z,44.53
2023-04-24T20:35:40.925Z,44.76
2023-04-24T20:38:11.088Z,44.85
2023-04-24T20:40:46.910Z,44.90
2023-04-24T20:43:28.640Z,45.10
2023-04-24T20:45:58.312Z,45.37
2023-04-24T20:48:27.178Z,45.38
2023-04-24T20:50:56.145Z,45.72
2023-04-24T20:53:24.162Z,45.78
2023-04-24T20:55:51.309Z,45.85
2023-04-24T20:58:24.560Z,45.91
2023-04-24T21:00:51.957Z,46.03
2023-04-24T21:03:20.060Z,46.25
2023-04-24T21:05:51.316Z,46.13
2023-04-24T21:08:18.452Z,46.36
2023-04-24T21:10:46.685Z,46.45
2023-04-24T21:13:13.838Z,46.38
2023-04-24T21:15:40.989Z,46.45
2023-04-24T21:18:08.109Z,46.44
2023-04-24T21:20:36.505Z,46.60
2023-04-24T21:23:03.637Z,46.51
2023-04-24T21:25:30.823Z,46.50
2023-04-24T21:27:58.787Z,46.48
2023-04-24T21:30:25.947Z,46.51
2023-04-24T21:32:53.334Z,46.64
2023-04-24T21:35:20.897Z,46.66
2023-04-24T21:37:50.916Z,46.73
2023-04-24T21:40:18.019Z,46.79
2023-04-24T21:42:45.727Z,46.83
2023-04-24T21:45:12.847Z,47.02
2023-04-24T21:47:40.070Z,46.97
2023-04-24T21:50:07.962Z,47.12
2023-04-24T21:52:35.323Z,47.14
2023-04-24T21:55:04.667Z,47.23
2023-04-24T21:57:31.819Z,47.31
2023-04-24T21:59:59.013Z,47.31
2023-04-24T22:02:27.754Z,47.37
2023-04-24T22:04:56.667Z,47.33
2023-04-24T22:07:24.120Z,47.16
2023-04-24T22:09:52.702Z,47.26
2023-04-24T22:12:23.619Z,47.21
2023-04-24T22:14:51.718Z,47.28
2023-04-24T22:17:19.161Z,47.23
2023-04-24T22:19:46.462Z,47.23
2023-04-24T22:22:13.669Z,47.23
2023-04-24T22:24:41.012Z,47.15
2023-04-24T22:27:08.161Z,47.11
2023-04-24T22:29:35.454Z,47.09
2023-04-24T22:32:03.176Z,47.06
2023-04-24T22:34:30.446Z,47.07
2023-04-24T22:36:57.779Z,47.13
2023-04-24T22:39:24.888Z,47.28
2023-04-24T22:41:51.926Z,47.24
2023-04-24T22:44:19.320Z,47.37
2023-04-24T22:46:47.786Z,47.34
2023-04-24T22:49:15.063Z,47.51
2023-04-24T22:51:42.886Z,47.49
2023-04-24T22:54:09.987Z,47.63
2023-04-24T22:56:38.345Z,47.59
2023-04-24T22:59:06.631Z,47.62
2023-04-24T23:01:33.934Z,47.57
2023-04-24T23:04:01.100Z,47.49
2023-04-24T23:06:28.318Z,47.51
2023-04-24T23:08:55.494Z,47.38
2023-04-24T23:11:22.691Z,47.41
2023-04-24T23:13:50.071Z,47.27
2023-04-24T23:16:17.505Z,47.21
2023-04-24T23:18:44.631Z,47.16
2023-04-24T23:21:12.511Z,47.18
2023-04-24T23:23:39.722Z,47.16
2023-04-24T23:26:06.932Z,47.17
2023-04-24T23:28:34.060Z,47.23
2023-04-24T23:31:03.282Z,47.24
2023-04-24T23:33:31.433Z,47.27
2023-04-24T23:35:59.310Z,47.45
2023-04-24T23:38:30.132Z,47.67
2023-04-24T23:41:02.350Z,47.69
2023-04-24T23:43:29.444Z,47.73
2023-04-24T23:45:57.233Z,47.85
2023-04-24T23:48:24.291Z,47.94
2023-04-24T23:50:51.425Z,48.04
2023-04-24T23:53:18.564Z,48.17
2023-04-24T23:55:45.665Z,48.28
2023-04-24T23:58:13.835Z,48.26
